HLY303 EDDF-HECA
Flight info
| Callsign | HLY303 |
|---|---|
| Flight time | N/A |
| Altitude | 37000 |
| Route | CINDY8S/18 CINDY Z74 LAMPU DCT NOMBO Y161 MAH DCT VAVOR DCT RADIZ DCT GORPA/N0455F390 DCT EVTON DCT SOLGU DCT AKIKA DCT MAVAR DCT BITLA DCT KPC UN139 KUMBI L612 BLT A16 CVO |
| Aircraft | A343/H-SDE2E3FGHIJ4J5M1RWXY/LB1D1 |
Departure
| Time | 2026-05-07 14:37 |
|---|---|
| Airport | Frankfurt Main Airport (EDDF) |
Arrival
| Time | N/A |
|---|---|
| Airport | Cairo International Airport (HECA) |
| Time | Latitude | Longitude | Altitude | Speed | Heading |
|---|---|---|---|---|---|
| 2026-05-07 14:00 | 50.03821 | 8.54583 | 365 ft | 0 kts | 160° |
| 2026-05-07 14:30 | 50.03818 | 8.54584 | 365 ft | 1 kts | 160° |
| 2026-05-07 14:30 | 50.03808 | 8.54590 | 372 ft | 2 kts | 160° |
| 2026-05-07 14:31 | 50.03788 | 8.54602 | 370 ft | 4 kts | 160° |
| 2026-05-07 14:31 | 50.03759 | 8.54614 | 368 ft | 5 kts | 174° |
| 2026-05-07 14:31 | 50.03728 | 8.54592 | 371 ft | 5 kts | 220° |
| 2026-05-07 14:31 | 50.03712 | 8.54542 | 371 ft | 5 kts | 250° |
| 2026-05-07 14:32 | 50.03698 | 8.54484 | 366 ft | 7 kts | 250° |
| 2026-05-07 14:32 | 50.03678 | 8.54397 | 370 ft | 10 kts | 249° |
| 2026-05-07 14:32 | 50.03647 | 8.54273 | 369 ft | 14 kts | 249° |
| 2026-05-07 14:32 | 50.03609 | 8.54117 | 367 ft | 17 kts | 249° |
| 2026-05-07 14:33 | 50.03563 | 8.53932 | 369 ft | 20 kts | 249° |
| 2026-05-07 14:33 | 50.03513 | 8.53724 | 371 ft | 22 kts | 250° |
| 2026-05-07 14:33 | 50.03458 | 8.53495 | 369 ft | 23 kts | 250° |
| 2026-05-07 14:33 | 50.03400 | 8.53250 | 371 ft | 25 kts | 250° |
| 2026-05-07 14:34 | 50.03340 | 8.52999 | 369 ft | 25 kts | 250° |
| 2026-05-07 14:34 | 50.03280 | 8.52746 | 372 ft | 24 kts | 250° |
| 2026-05-07 14:34 | 50.03185 | 8.52599 | 370 ft | 15 kts | 181° |
| 2026-05-07 14:34 | 50.03175 | 8.52599 | 373 ft | 0 kts | 180° |
| 2026-05-07 14:36 | 50.03170 | 8.52599 | 372 ft | 5 kts | 180° |
| 2026-05-07 14:36 | 50.02945 | 8.52600 | 367 ft | 62 kts | 180° |
| 2026-05-07 14:36 | 50.02333 | 8.52607 | 373 ft | 112 kts | 179° |
| 2026-05-07 14:36 | 50.01405 | 8.52616 | 368 ft | 153 kts | 180° |
| 2026-05-07 14:37 | 50.00245 | 8.52632 | 573 ft | 172 kts | 180° |
| 2026-05-07 14:37 | 49.97737 | 8.52697 | 1567 ft | 188 kts | 175° |
| 2026-05-07 14:37 | 49.96459 | 8.53444 | 1758 ft | 215 kts | 139° |
| 2026-05-07 14:38 | 49.95527 | 8.55428 | 2132 ft | 238 kts | 117° |
| 2026-05-07 14:38 | 49.94742 | 8.57722 | 2992 ft | 241 kts | 117° |
| 2026-05-07 14:38 | 49.94115 | 8.60128 | 3693 ft | 243 kts | 101° |
| 2026-05-07 14:38 | 49.93917 | 8.62804 | 4310 ft | 257 kts | 92° |
| 2026-05-07 14:39 | 49.93829 | 8.65631 | 5082 ft | 266 kts | 92° |
| 2026-05-07 14:39 | 49.93546 | 8.68487 | 5893 ft | 272 kts | 109° |
| 2026-05-07 14:39 | 49.92493 | 8.70920 | 6730 ft | 275 kts | 139° |
| 2026-05-07 14:39 | 49.90965 | 8.72739 | 7545 ft | 279 kts | 146° |
| 2026-05-07 14:40 | 49.89366 | 8.74492 | 8340 ft | 284 kts | 143° |
| 2026-05-07 14:40 | 49.88005 | 8.76734 | 9123 ft | 289 kts | 123° |
| 2026-05-07 14:40 | 49.86974 | 8.79421 | 9933 ft | 292 kts | 119° |
| 2026-05-07 14:40 | 49.85985 | 8.82207 | 10585 ft | 299 kts | 118° |
| 2026-05-07 14:41 | 49.84953 | 8.85106 | 10956 ft | 316 kts | 119° |
| 2026-05-07 14:41 | 49.83851 | 8.88160 | 11257 ft | 333 kts | 119° |
| 2026-05-07 14:41 | 49.82688 | 8.91367 | 11586 ft | 348 kts | 119° |
| 2026-05-07 14:41 | 49.81486 | 8.94677 | 12145 ft | 356 kts | 119° |
| 2026-05-07 14:42 | 49.80261 | 8.98045 | 12764 ft | 362 kts | 119° |
| 2026-05-07 14:42 | 49.79034 | 9.01416 | 13416 ft | 366 kts | 119° |
| 2026-05-07 14:42 | 49.77775 | 9.04867 | 14073 ft | 370 kts | 119° |
| 2026-05-07 14:42 | 49.76542 | 9.08394 | 14667 ft | 376 kts | 115° |
| 2026-05-07 14:43 | 49.75692 | 9.12234 | 15261 ft | 380 kts | 104° |
| 2026-05-07 14:43 | 49.75014 | 9.16201 | 15887 ft | 384 kts | 107° |
| 2026-05-07 14:43 | 49.73893 | 9.19956 | 16481 ft | 387 kts | 123° |
| 2026-05-07 14:43 | 49.72320 | 9.23355 | 17110 ft | 391 kts | 129° |
| 2026-05-07 14:44 | 49.70565 | 9.26584 | 17722 ft | 394 kts | 132° |
| 2026-05-07 14:44 | 49.68719 | 9.29744 | 18338 ft | 398 kts | 134° |
| 2026-05-07 14:44 | 49.66842 | 9.32896 | 18886 ft | 401 kts | 134° |
| 2026-05-07 14:44 | 49.64954 | 9.36083 | 19417 ft | 404 kts | 133° |
| 2026-05-07 14:45 | 49.63038 | 9.39272 | 19965 ft | 406 kts | 136° |
| 2026-05-07 14:45 | 49.60867 | 9.42060 | 20513 ft | 407 kts | 146° |
| 2026-05-07 14:45 | 49.58519 | 9.44516 | 21052 ft | 410 kts | 148° |
| 2026-05-07 14:45 | 49.56092 | 9.46848 | 21513 ft | 413 kts | 150° |
| 2026-05-07 14:46 | 49.53604 | 9.49125 | 21962 ft | 418 kts | 151° |
| 2026-05-07 14:46 | 49.51088 | 9.51381 | 22470 ft | 420 kts | 152° |
| 2026-05-07 14:46 | 49.48554 | 9.53646 | 22958 ft | 423 kts | 151° |
| 2026-05-07 14:46 | 49.46002 | 9.55937 | 23458 ft | 426 kts | 151° |
| 2026-05-07 14:47 | 49.43440 | 9.58246 | 23880 ft | 428 kts | 151° |
| 2026-05-07 14:47 | 49.40864 | 9.60578 | 24271 ft | 431 kts | 151° |
| 2026-05-07 14:47 | 49.38276 | 9.62924 | 24666 ft | 433 kts | 151° |
| 2026-05-07 14:47 | 49.35689 | 9.65329 | 25050 ft | 436 kts | 148° |
| 2026-05-07 14:48 | 49.33271 | 9.68167 | 25427 ft | 440 kts | 140° |
| 2026-05-07 14:48 | 49.31000 | 9.71346 | 25775 ft | 444 kts | 138° |
| 2026-05-07 14:48 | 49.28776 | 9.74648 | 26150 ft | 446 kts | 137° |
| 2026-05-07 14:48 | 49.26577 | 9.78008 | 26531 ft | 448 kts | 136° |
| 2026-05-07 14:49 | 49.24375 | 9.81407 | 26891 ft | 451 kts | 136° |
| 2026-05-07 14:49 | 49.22154 | 9.84833 | 27159 ft | 455 kts | 136° |
| 2026-05-07 14:49 | 49.19915 | 9.88271 | 27521 ft | 457 kts | 136° |
| 2026-05-07 14:49 | 49.17663 | 9.91710 | 27882 ft | 458 kts | 136° |
| 2026-05-07 14:50 | 49.15400 | 9.95149 | 28226 ft | 460 kts | 136° |
| 2026-05-07 14:50 | 49.13125 | 9.98596 | 28581 ft | 462 kts | 136° |
| 2026-05-07 14:50 | 49.10834 | 10.02057 | 28899 ft | 464 kts | 136° |
| 2026-05-07 14:50 | 49.08537 | 10.05523 | 29191 ft | 466 kts | 136° |
| 2026-05-07 14:51 | 49.06233 | 10.08995 | 29558 ft | 466 kts | 137° |
| 2026-05-07 14:51 | 49.03903 | 10.12449 | 29884 ft | 468 kts | 138° |
| 2026-05-07 14:51 | 49.01554 | 10.15795 | 30171 ft | 470 kts | 139° |
| 2026-05-07 14:51 | 48.99139 | 10.19166 | 30351 ft | 473 kts | 139° |
| 2026-05-07 14:52 | 48.96702 | 10.22552 | 30571 ft | 475 kts | 139° |
| 2026-05-07 14:52 | 48.94258 | 10.25953 | 30847 ft | 477 kts | 139° |
| 2026-05-07 14:52 | 48.91815 | 10.29367 | 31061 ft | 478 kts | 139° |
| 2026-05-07 14:52 | 48.89365 | 10.32807 | 31308 ft | 480 kts | 138° |
| 2026-05-07 14:53 | 48.86921 | 10.36249 | 31599 ft | 480 kts | 138° |
| 2026-05-07 14:53 | 48.84474 | 10.39695 | 31936 ft | 479 kts | 139° |
| 2026-05-07 14:53 | 48.82037 | 10.43131 | 32228 ft | 479 kts | 138° |
| 2026-05-07 14:53 | 48.79674 | 10.46699 | 32516 ft | 479 kts | 135° |
| 2026-05-07 14:54 | 48.77393 | 10.50376 | 32800 ft | 479 kts | 134° |
| 2026-05-07 14:54 | 48.75141 | 10.54091 | 33079 ft | 479 kts | 134° |
| 2026-05-07 14:54 | 48.72887 | 10.57809 | 33344 ft | 479 kts | 134° |
| 2026-05-07 14:54 | 48.70624 | 10.61506 | 33636 ft | 479 kts | 135° |
| 2026-05-07 14:55 | 48.68347 | 10.65185 | 33926 ft | 478 kts | 135° |
| 2026-05-07 14:55 | 48.66060 | 10.68845 | 34173 ft | 478 kts | 135° |
| 2026-05-07 14:55 | 48.63775 | 10.72485 | 34384 ft | 478 kts | 135° |
| 2026-05-07 14:55 | 48.61483 | 10.76122 | 34585 ft | 478 kts | 136° |
| 2026-05-07 14:56 | 48.59184 | 10.79756 | 34791 ft | 478 kts | 136° |
| 2026-05-07 14:56 | 48.56890 | 10.83388 | 34978 ft | 478 kts | 135° |
| 2026-05-07 14:56 | 48.55372 | 10.85805 | 35101 ft | 479 kts | 135° |
| 2026-05-07 14:56 | 48.53054 | 10.89511 | 35266 ft | 479 kts | 135° |
| 2026-05-07 14:57 | 48.50775 | 10.93157 | 35497 ft | 478 kts | 136° |
| 2026-05-07 14:57 | 48.48518 | 10.96767 | 35681 ft | 479 kts | 135° |
| 2026-05-07 14:57 | 48.46222 | 11.00403 | 35868 ft | 479 kts | 136° |
| 2026-05-07 14:57 | 48.43915 | 11.04005 | 36037 ft | 479 kts | 136° |
| 2026-05-07 14:58 | 48.41591 | 11.07607 | 36231 ft | 479 kts | 137° |
| 2026-05-07 14:58 | 48.39270 | 11.11200 | 36415 ft | 479 kts | 137° |
| 2026-05-07 14:58 | 48.36943 | 11.14799 | 36588 ft | 479 kts | 137° |
| 2026-05-07 14:58 | 48.34620 | 11.18393 | 36759 ft | 479 kts | 137° |
| 2026-05-07 14:59 | 48.32297 | 11.21986 | 36927 ft | 480 kts | 137° |
| 2026-05-07 14:59 | 48.29968 | 11.25588 | 37009 ft | 482 kts | 137° |
| 2026-05-07 14:59 | 48.25643 | 11.33290 | 37023 ft | 485 kts | 124° |
| 2026-05-07 15:00 | 48.22136 | 11.41917 | 37022 ft | 485 kts | 122° |
| 2026-05-07 15:00 | 48.18769 | 11.50680 | 37021 ft | 485 kts | 122° |
| 2026-05-07 15:01 | 48.15406 | 11.59443 | 37020 ft | 485 kts | 122° |
| 2026-05-07 15:01 | 48.12021 | 11.68176 | 37017 ft | 485 kts | 123° |
| 2026-05-07 15:02 | 48.08619 | 11.76885 | 37018 ft | 485 kts | 123° |
| 2026-05-07 15:02 | 48.05210 | 11.85579 | 37019 ft | 485 kts | 123° |
| 2026-05-07 15:03 | 48.01794 | 11.94266 | 37021 ft | 485 kts | 123° |
| 2026-05-07 15:03 | 47.98367 | 12.02954 | 37015 ft | 486 kts | 123° |
| 2026-05-07 15:04 | 47.94911 | 12.11610 | 37008 ft | 484 kts | 126° |
| 2026-05-07 15:04 | 47.90515 | 12.19053 | 37016 ft | 476 kts | 141° |
| 2026-05-07 15:05 | 47.85512 | 12.25521 | 37021 ft | 476 kts | 143° |
| 2026-05-07 15:05 | 47.80448 | 12.31781 | 37019 ft | 476 kts | 143° |
| 2026-05-07 15:06 | 47.75321 | 12.38112 | 37008 ft | 476 kts | 143° |
| 2026-05-07 15:06 | 47.70235 | 12.44421 | 37018 ft | 476 kts | 143° |
| 2026-05-07 15:07 | 47.65148 | 12.50734 | 37016 ft | 477 kts | 143° |
| 2026-05-07 15:07 | 47.60368 | 12.57491 | 37018 ft | 480 kts | 137° |
| 2026-05-07 15:08 | 47.55795 | 12.64708 | 37002 ft | 480 kts | 136° |
| 2026-05-07 15:08 | 47.51272 | 12.71960 | 37011 ft | 480 kts | 136° |
| 2026-05-07 15:09 | 47.46729 | 12.79207 | 37020 ft | 481 kts | 137° |
| 2026-05-07 15:09 | 47.42172 | 12.86436 | 37019 ft | 481 kts | 137° |
| 2026-05-07 15:10 | 47.37601 | 12.93659 | 37012 ft | 481 kts | 137° |
| 2026-05-07 15:10 | 47.33028 | 13.00861 | 37017 ft | 482 kts | 137° |
| 2026-05-07 15:11 | 47.28444 | 13.08068 | 37009 ft | 481 kts | 137° |
| 2026-05-07 15:11 | 47.23873 | 13.15237 | 37006 ft | 480 kts | 137° |
| 2026-05-07 15:12 | 47.19295 | 13.22395 | 37006 ft | 481 kts | 137° |
| 2026-05-07 15:12 | 47.14706 | 13.29546 | 36974 ft | 481 kts | 137° |
| 2026-05-07 15:13 | 47.10115 | 13.36684 | 36987 ft | 480 kts | 137° |
| 2026-05-07 15:13 | 47.05529 | 13.43800 | 36983 ft | 480 kts | 137° |
| 2026-05-07 15:14 | 47.00936 | 13.50904 | 36980 ft | 480 kts | 138° |
| 2026-05-07 15:14 | 46.96332 | 13.58005 | 36961 ft | 481 kts | 138° |
| 2026-05-07 15:15 | 46.91718 | 13.65105 | 36965 ft | 481 kts | 139° |
| 2026-05-07 15:15 | 46.87095 | 13.72197 | 36940 ft | 481 kts | 138° |
| 2026-05-07 15:16 | 46.82504 | 13.79224 | 36944 ft | 482 kts | 139° |
| 2026-05-07 15:16 | 46.77876 | 13.86287 | 36933 ft | 481 kts | 139° |
| 2026-05-07 15:17 | 46.73244 | 13.93337 | 36905 ft | 481 kts | 139° |
| 2026-05-07 15:17 | 46.68609 | 14.00375 | 36920 ft | 482 kts | 139° |
| 2026-05-07 15:18 | 46.63960 | 14.07414 | 36912 ft | 482 kts | 139° |
| 2026-05-07 15:18 | 46.59309 | 14.14437 | 36912 ft | 482 kts | 139° |
| 2026-05-07 15:19 | 46.54656 | 14.21445 | 36914 ft | 482 kts | 139° |
| 2026-05-07 15:19 | 46.49997 | 14.28442 | 36918 ft | 482 kts | 139° |
| 2026-05-07 15:20 | 46.45345 | 14.35400 | 36907 ft | 481 kts | 139° |
| 2026-05-07 15:20 | 46.40686 | 14.42367 | 36931 ft | 482 kts | 139° |
| 2026-05-07 15:21 | 46.36018 | 14.49332 | 36930 ft | 482 kts | 140° |
| 2026-05-07 15:21 | 46.31341 | 14.56281 | 36901 ft | 482 kts | 140° |
| 2026-05-07 15:22 | 46.26668 | 14.63206 | 36944 ft | 480 kts | 140° |
| 2026-05-07 15:22 | 46.22012 | 14.70101 | 36927 ft | 479 kts | 140° |
| 2026-05-07 15:23 | 46.17352 | 14.76976 | 36942 ft | 479 kts | 140° |
| 2026-05-07 15:23 | 46.12683 | 14.83843 | 36942 ft | 479 kts | 140° |
| 2026-05-07 15:24 | 46.08013 | 14.90697 | 36939 ft | 479 kts | 140° |
| 2026-05-07 15:24 | 46.03346 | 14.97529 | 36950 ft | 478 kts | 140° |
| 2026-05-07 15:25 | 45.98674 | 15.04349 | 36962 ft | 478 kts | 140° |
| 2026-05-07 15:25 | 45.94032 | 15.11108 | 36961 ft | 479 kts | 141° |
| 2026-05-07 15:26 | 45.89339 | 15.17923 | 36956 ft | 480 kts | 141° |
| 2026-05-07 15:26 | 45.84641 | 15.24729 | 36965 ft | 480 kts | 141° |
| 2026-05-07 15:27 | 45.79936 | 15.31528 | 36966 ft | 480 kts | 141° |
| 2026-05-07 15:27 | 45.75253 | 15.38334 | 37059 ft | 480 kts | 139° |
| 2026-05-07 15:28 | 45.72970 | 15.41836 | 37252 ft | 481 kts | 138° |
| 2026-05-07 15:28 | 45.70722 | 15.45363 | 37437 ft | 480 kts | 138° |
| 2026-05-07 15:28 | 45.68478 | 15.48899 | 37616 ft | 480 kts | 138° |
| 2026-05-07 15:28 | 45.66229 | 15.52430 | 37778 ft | 480 kts | 138° |
| 2026-05-07 15:29 | 45.63974 | 15.55948 | 37955 ft | 480 kts | 138° |
| 2026-05-07 15:29 | 45.61714 | 15.59453 | 38124 ft | 479 kts | 139° |
| 2026-05-07 15:29 | 45.59448 | 15.62948 | 38287 ft | 479 kts | 139° |
| 2026-05-07 15:29 | 45.57181 | 15.66435 | 38445 ft | 479 kts | 139° |
| 2026-05-07 15:30 | 45.54915 | 15.69912 | 38602 ft | 479 kts | 139° |
| 2026-05-07 15:30 | 45.52646 | 15.73390 | 38732 ft | 479 kts | 139° |
| 2026-05-07 15:30 | 45.50375 | 15.76867 | 38843 ft | 479 kts | 139° |
| 2026-05-07 15:30 | 45.48104 | 15.80339 | 38943 ft | 479 kts | 139° |
| 2026-05-07 15:31 | 45.43533 | 15.87313 | 38993 ft | 484 kts | 139° |
| 2026-05-07 15:31 | 45.38949 | 15.94298 | 38995 ft | 481 kts | 139° |
| 2026-05-07 15:32 | 45.34380 | 16.01242 | 39000 ft | 481 kts | 139° |
| 2026-05-07 15:32 | 45.29808 | 16.08170 | 38992 ft | 480 kts | 139° |
| 2026-05-07 15:33 | 45.25250 | 16.15062 | 38998 ft | 478 kts | 139° |
| 2026-05-07 15:33 | 45.20700 | 16.21922 | 39000 ft | 477 kts | 139° |
| 2026-05-07 15:34 | 45.16173 | 16.28729 | 39002 ft | 478 kts | 139° |
| 2026-05-07 15:34 | 45.11613 | 16.35569 | 38986 ft | 478 kts | 139° |
| 2026-05-07 15:35 | 45.07051 | 16.42398 | 39004 ft | 477 kts | 139° |
| 2026-05-07 15:35 | 45.02488 | 16.49210 | 39006 ft | 477 kts | 139° |
| 2026-05-07 15:36 | 44.97917 | 16.56015 | 39008 ft | 477 kts | 139° |
| 2026-05-07 15:36 | 44.93346 | 16.62806 | 39001 ft | 477 kts | 139° |
| 2026-05-07 15:37 | 44.88759 | 16.69600 | 39013 ft | 479 kts | 139° |
| 2026-05-07 15:37 | 44.84151 | 16.76411 | 39012 ft | 480 kts | 139° |
| 2026-05-07 15:38 | 44.79542 | 16.83208 | 39013 ft | 480 kts | 139° |
| 2026-05-07 15:38 | 44.74931 | 16.89991 | 39014 ft | 479 kts | 139° |
| 2026-05-07 15:39 | 44.70224 | 16.96602 | 39017 ft | 476 kts | 143° |
| 2026-05-07 15:39 | 44.65238 | 17.02716 | 39020 ft | 476 kts | 144° |
| 2026-05-07 15:40 | 44.60202 | 17.08732 | 39021 ft | 475 kts | 145° |
| 2026-05-07 15:40 | 44.55165 | 17.14718 | 39022 ft | 475 kts | 145° |
| 2026-05-07 15:41 | 44.50122 | 17.20710 | 39029 ft | 476 kts | 144° |
| 2026-05-07 15:41 | 44.45074 | 17.26706 | 39025 ft | 476 kts | 144° |
| 2026-05-07 15:42 | 44.40016 | 17.32701 | 39037 ft | 477 kts | 144° |
| 2026-05-07 15:42 | 44.34988 | 17.38646 | 39045 ft | 477 kts | 144° |
| 2026-05-07 15:43 | 44.29920 | 17.44624 | 39040 ft | 477 kts | 144° |
| 2026-05-07 15:43 | 44.24846 | 17.50593 | 39054 ft | 477 kts | 144° |
| 2026-05-07 15:44 | 44.19762 | 17.56560 | 39040 ft | 478 kts | 144° |
| 2026-05-07 15:44 | 44.14670 | 17.62523 | 39060 ft | 479 kts | 145° |
| 2026-05-07 15:45 | 44.10437 | 17.67482 | 39053 ft | 479 kts | 144° |
| 2026-05-07 15:45 | 44.05470 | 17.73710 | 39046 ft | 482 kts | 141° |
| 2026-05-07 15:46 | 43.98088 | 17.83240 | 39051 ft | 483 kts | 141° |
| 2026-05-07 15:47 | 43.93135 | 17.89541 | 39048 ft | 484 kts | 142° |
| 2026-05-07 15:47 | 43.88157 | 17.95819 | 39053 ft | 484 kts | 142° |
| 2026-05-07 15:48 | 43.83173 | 18.02085 | 39050 ft | 484 kts | 142° |
| 2026-05-07 15:48 | 43.78191 | 18.08340 | 39050 ft | 483 kts | 142° |
| 2026-05-07 15:49 | 43.73206 | 18.14584 | 39054 ft | 483 kts | 142° |
| 2026-05-07 15:49 | 43.68219 | 18.20817 | 39051 ft | 483 kts | 143° |
| 2026-05-07 15:50 | 43.63226 | 18.27040 | 39052 ft | 483 kts | 143° |